HPP weather

Cabo de PeƱas Heliport
Huixquilucan, Mexico, Mexico

Public forecast

Using degrees Celsius for public forecast. Weather courtesy of forecast.io.

METAR (pilot weather report)

Closest report is Licenciado Benito Juarez International Airport, 11.7 nm (21.6 km) E. Retrieved 2019/06/25 19:43 UTC (1 hour ago):

MMMX 251943Z 15005KT 8SM BKN020CB BKN080 OVC200 22/10 A3028 NOSIG RMK 8/367 HZY PCPN W

TAF (pilot weather forecast)

Closest forecast is Licenciado Benito Juarez International Airport, 11.7 nm (21.6 km) E. Retrieved 2019/06/25 18:38 UTC (2 hours ago):

TAF COR MMMX 251732Z 2518/2624 07005KT P6SM SCT020 BKN080 TX24/2521Z TN15/2613Z FM252100 12012KT P6SM VC RA BKN020CB OVC080 TEMPO 2522/2602 5SM TSRA FM260300 04005KT P6SM SCT020 BKN080 BECMG 2605/2606 00000KT FM261200 03005KT 5SM HZ BKN020 BKN080 FM261600 03005KT 6SM HZ SCT020 BKN080 FM262100 05012KT P6SM BKN020CB BKN080 PROB40 2621/2624 4SM TSRA